createdAt,value
2019-03-31T04:46:37.332Z,99.90
2019-03-31T04:49:08.169Z,99.90
2019-03-31T04:51:38.985Z,99.90
2019-03-31T04:54:09.858Z,99.90
2019-03-31T04:56:40.686Z,99.90
2019-03-31T04:59:11.548Z,99.90
2019-03-31T05:01:42.346Z,99.90
2019-03-31T05:04:13.177Z,99.90
2019-03-31T05:06:44.012Z,99.90
2019-03-31T05:09:14.869Z,99.90
2019-03-31T05:11:45.676Z,99.90
2019-03-31T05:14:16.539Z,99.90
2019-03-31T05:16:47.352Z,99.90
2019-03-31T05:19:18.203Z,99.90
2019-03-31T05:21:49.013Z,99.90
2019-03-31T05:24:19.845Z,99.90
2019-03-31T05:26:50.712Z,99.90
2019-03-31T05:29:21.569Z,99.90
2019-03-31T05:31:52.407Z,99.90
2019-03-31T05:34:24.221Z,99.90
2019-03-31T05:36:55.032Z,99.90
2019-03-31T05:39:26.839Z,99.90
2019-03-31T05:41:58.629Z,99.90
2019-03-31T05:44:29.464Z,99.90
2019-03-31T05:47:00.314Z,99.90
2019-03-31T05:49:31.160Z,99.90
2019-03-31T05:52:02.034Z,99.90
2019-03-31T05:54:32.888Z,99.90
2019-03-31T05:57:03.744Z,99.90
2019-03-31T05:59:34.546Z,99.90
2019-03-31T06:02:05.393Z,99.90
2019-03-31T06:04:36.216Z,99.90
2019-03-31T06:07:07.085Z,99.90
2019-03-31T06:09:37.908Z,99.90
2019-03-31T06:12:08.752Z,99.90
2019-03-31T06:14:39.571Z,99.90
2019-03-31T06:17:10.490Z,99.90
2019-03-31T06:19:41.297Z,99.90
2019-03-31T06:22:12.131Z,99.90
2019-03-31T06:24:42.987Z,99.90
2019-03-31T06:27:15.950Z,99.90
2019-03-31T06:29:46.846Z,99.90
2019-03-31T06:32:18.815Z,99.90
2019-03-31T06:34:49.641Z,99.90
2019-03-31T06:37:20.489Z,99.90
2019-03-31T06:39:51.306Z,99.90
2019-03-31T06:42:22.152Z,99.90
2019-03-31T06:44:52.973Z,99.90
2019-03-31T06:47:23.824Z,99.90
2019-03-31T06:49:54.644Z,99.90
2019-03-31T06:52:25.488Z,99.90
2019-03-31T06:54:56.329Z,99.90
2019-03-31T06:57:27.264Z,99.90
2019-03-31T06:59:58.086Z,99.90
2019-03-31T07:02:28.933Z,99.90
2019-03-31T07:05:01.081Z,99.90
2019-03-31T07:07:32.205Z,99.90
2019-03-31T07:10:03.085Z,99.90
2019-03-31T07:12:35.001Z,99.90
2019-03-31T07:15:07.492Z,99.90
2019-03-31T07:17:38.416Z,99.90
2019-03-31T07:20:10.193Z,99.90
2019-03-31T07:22:41.109Z,99.90
2019-03-31T07:25:12.566Z,99.90
2019-03-31T07:27:44.738Z,99.90
2019-03-31T07:30:17.832Z,99.90
2019-03-31T07:32:48.950Z,99.90
2019-03-31T07:35:19.785Z,99.90
2019-03-31T07:37:51.895Z,99.90
2019-03-31T07:40:24.150Z,99.90
2019-03-31T07:42:55.433Z,99.90
2019-03-31T07:45:27.170Z,99.90
2019-03-31T07:47:58.382Z,99.90
2019-03-31T07:50:29.212Z,99.90
2019-03-31T07:53:00.083Z,99.90
2019-03-31T07:55:30.935Z,99.90
2019-03-31T07:58:02.027Z,99.90
2019-03-31T08:00:32.817Z,99.90
2019-03-31T08:03:03.888Z,99.90
2019-03-31T08:05:37.679Z,99.90
2019-03-31T08:08:08.287Z,99.90
2019-03-31T08:10:39.131Z,99.90
2019-03-31T08:13:09.998Z,99.90
2019-03-31T08:15:41.015Z,99.90
2019-03-31T08:18:12.741Z,99.90
2019-03-31T08:20:43.606Z,99.90
2019-03-31T08:23:14.536Z,99.90
2019-03-31T08:25:45.653Z,99.90
2019-03-31T08:28:16.606Z,99.90
2019-03-31T08:30:47.548Z,99.90
2019-03-31T08:33:18.407Z,99.90
2019-03-31T08:35:49.302Z,99.90
2019-03-31T08:38:20.181Z,99.90
2019-03-31T08:40:51.006Z,99.90
2019-03-31T08:43:21.902Z,99.90
2019-03-31T08:45:52.835Z,99.90
2019-03-31T08:48:23.687Z,99.90
2019-03-31T08:50:54.615Z,99.90
2019-03-31T08:53:26.594Z,99.90
2019-03-31T08:55:57.428Z,99.90
2019-03-31T08:58:28.294Z,99.90
2019-03-31T09:01:07.088Z,99.90
2019-03-31T09:03:37.966Z,99.90
2019-03-31T09:06:08.920Z,99.90
2019-03-31T09:08:39.768Z,99.90
2019-03-31T09:11:10.567Z,99.90
2019-03-31T09:13:41.481Z,99.90
2019-03-31T09:16:12.293Z,99.90
2019-03-31T09:18:43.166Z,99.90
2019-03-31T09:21:13.972Z,99.90
2019-03-31T09:23:44.826Z,99.90
2019-03-31T09:26:15.638Z,99.90
2019-03-31T09:28:46.488Z,99.90
2019-03-31T09:31:17.305Z,99.90
2019-03-31T09:33:48.144Z,99.90
2019-03-31T09:36:18.949Z,99.90
2019-03-31T09:38:49.812Z,99.90
2019-03-31T09:41:20.827Z,99.90
2019-03-31T09:43:51.912Z,99.90
2019-03-31T09:46:22.870Z,99.90
2019-03-31T09:48:55.305Z,99.90
2019-03-31T09:51:26.857Z,99.90
2019-03-31T09:53:57.729Z,99.90
2019-03-31T09:56:28.613Z,99.90
2019-03-31T09:59:01.340Z,99.90
2019-03-31T10:01:35.600Z,99.90
2019-03-31T10:04:07.425Z,99.90
2019-03-31T10:06:38.236Z,99.90
2019-03-31T10:09:09.192Z,99.90
2019-03-31T10:11:40.618Z,99.90
2019-03-31T10:14:11.524Z,99.90
2019-03-31T10:16:42.434Z,99.90
2019-03-31T10:19:13.613Z,99.90
2019-03-31T10:21:44.579Z,99.90
2019-03-31T10:24:16.099Z,99.90
2019-03-31T10:26:47.309Z,99.90
2019-03-31T10:29:18.250Z,99.90
2019-03-31T10:31:49.189Z,99.90
2019-03-31T10:34:20.202Z,99.90
2019-03-31T10:36:51.003Z,99.90
2019-03-31T10:39:21.857Z,99.50
2019-03-31T10:41:52.698Z,98.10
2019-03-31T10:44:23.558Z,97.80
2019-03-31T10:46:54.380Z,96.70
2019-03-31T10:49:25.384Z,94.10
2019-03-31T10:51:56.229Z,94.90
2019-03-31T10:54:27.096Z,93.70
2019-03-31T10:56:58.931Z,92.30
2019-03-31T10:59:29.797Z,91.30
2019-03-31T11:02:00.629Z,90.20
2019-03-31T11:04:31.532Z,87.20
2019-03-31T11:07:03.670Z,86.60
2019-03-31T11:09:35.578Z,85.10
2019-03-31T11:12:06.502Z,83.90
2019-03-31T11:14:37.380Z,80.60
2019-03-31T11:17:09.193Z,79.50
2019-03-31T11:19:40.054Z,79.50
2019-03-31T11:22:17.793Z,77.80
2019-03-31T11:24:49.949Z,76.70
2019-03-31T11:27:21.151Z,75.80
2019-03-31T11:29:52.089Z,73.60
2019-03-31T11:32:23.390Z,71.50
2019-03-31T11:34:54.203Z,69.70
2019-03-31T11:37:25.048Z,68.00
2019-03-31T11:39:56.089Z,65.20
2019-03-31T11:42:27.022Z,62.80
2019-03-31T11:44:58.001Z,60.70
2019-03-31T11:47:28.855Z,61.40
2019-03-31T11:49:59.766Z,58.10
2019-03-31T11:52:30.722Z,56.90
2019-03-31T11:55:01.629Z,58.30
2019-03-31T11:57:32.561Z,58.50
2019-03-31T12:00:03.485Z,59.50
2019-03-31T12:02:34.365Z,61.00
2019-03-31T12:05:06.315Z,61.60
2019-03-31T12:07:46.794Z,63.70
2019-03-31T12:10:11.171Z,64.50
2019-03-31T12:12:42.062Z,66.00
2019-03-31T12:15:12.873Z,65.80
2019-03-31T12:17:43.720Z,66.60
2019-03-31T12:20:14.781Z,67.30
2019-03-31T12:22:45.657Z,66.90
2019-03-31T12:25:19.698Z,66.50
2019-03-31T12:27:48.969Z,68.20
2019-03-31T12:30:28.666Z,68.80
2019-03-31T12:32:59.726Z,67.80
2019-03-31T12:35:30.540Z,68.50
2019-03-31T12:38:01.429Z,67.50
2019-03-31T12:40:33.559Z,68.00
2019-03-31T12:43:04.615Z,67.40
2019-03-31T12:45:35.694Z,67.50
2019-03-31T12:48:06.552Z,68.00
2019-03-31T12:50:37.444Z,67.30
2019-03-31T12:53:08.297Z,67.10
2019-03-31T12:55:39.175Z,67.80
2019-03-31T12:58:10.069Z,67.90
2019-03-31T13:00:40.997Z,67.90
2019-03-31T13:03:15.894Z,68.10
2019-03-31T13:05:45.302Z,66.20
2019-03-31T13:08:16.229Z,66.30
2019-03-31T13:10:47.111Z,66.80
2019-03-31T13:13:17.973Z,66.20
2019-03-31T13:15:48.828Z,64.70
2019-03-31T13:18:20.697Z,63.30
2019-03-31T13:20:51.536Z,64.40
2019-03-31T13:23:22.412Z,63.40
2019-03-31T13:25:53.253Z,63.00
2019-03-31T13:28:24.139Z,63.20
2019-03-31T13:30:54.978Z,62.00
2019-03-31T13:33:25.829Z,61.50
2019-03-31T13:35:56.655Z,62.20
2019-03-31T13:38:27.519Z,62.60
2019-03-31T13:40:58.357Z,63.20
2019-03-31T13:43:29.213Z,63.00
2019-03-31T13:46:00.352Z,62.90
2019-03-31T13:48:31.209Z,63.10
2019-03-31T13:51:02.058Z,63.60
2019-03-31T13:53:32.921Z,63.40
2019-03-31T13:56:03.779Z,63.20
2019-03-31T13:58:36.140Z,63.10
2019-03-31T14:01:07.299Z,59.70
2019-03-31T14:03:38.468Z,56.50
2019-03-31T14:06:10.302Z,51.30
2019-03-31T14:08:41.192Z,47.10
2019-03-31T14:11:12.045Z,44.30
2019-03-31T14:13:43.883Z,41.00
2019-03-31T14:16:14.718Z,39.40
2019-03-31T14:18:45.576Z,36.90
2019-03-31T14:21:16.415Z,36.40
2019-03-31T14:23:48.242Z,35.60
2019-03-31T14:26:19.088Z,35.10
2019-03-31T14:28:50.040Z,35.00
2019-03-31T14:31:20.878Z,34.00
2019-03-31T14:33:51.737Z,35.10
2019-03-31T14:36:22.637Z,36.90
2019-03-31T14:38:53.533Z,36.50
2019-03-31T14:41:24.357Z,35.80
2019-03-31T14:43:56.180Z,34.30
2019-03-31T14:46:27.063Z,34.50
2019-03-31T14:48:57.905Z,34.60
2019-03-31T14:51:28.792Z,34.70
2019-03-31T14:53:59.659Z,36.50
2019-03-31T14:56:30.574Z,40.60
2019-03-31T14:59:01.673Z,44.60
2019-03-31T15:01:32.597Z,48.40
2019-03-31T15:04:03.423Z,51.50
2019-03-31T15:06:34.312Z,55.00
2019-03-31T15:09:07.473Z,58.30
2019-03-31T15:11:38.341Z,60.90
2019-03-31T15:14:09.175Z,64.10
2019-03-31T15:16:40.181Z,66.90
2019-03-31T15:19:11.000Z,69.90
2019-03-31T15:21:44.832Z,74.90
2019-03-31T15:24:14.354Z,82.90
2019-03-31T15:26:45.516Z,90.20
2019-03-31T15:29:16.561Z,94.20
2019-03-31T15:31:47.981Z,96.40
2019-03-31T15:34:18.861Z,98.80
2019-03-31T15:36:49.730Z,99.80
2019-03-31T15:39:20.601Z,99.90
2019-03-31T15:41:51.645Z,99.90
2019-03-31T15:44:22.531Z,99.90
2019-03-31T15:46:53.396Z,99.90
2019-03-31T15:49:25.308Z,99.90
2019-03-31T15:51:56.164Z,99.90
2019-03-31T15:54:27.176Z,99.90
2019-03-31T15:56:58.179Z,99.90
2019-03-31T15:59:28.994Z,99.90
2019-03-31T16:01:59.936Z,99.90
2019-03-31T16:04:30.765Z,99.90
2019-03-31T16:07:01.671Z,99.90
2019-03-31T16:09:34.216Z,99.90
2019-03-31T16:12:04.531Z,99.90
2019-03-31T16:14:34.830Z,99.90
2019-03-31T16:17:05.190Z,99.90
2019-03-31T16:19:35.569Z,99.90
2019-03-31T16:22:05.893Z,99.90
2019-03-31T16:24:41.587Z,99.90
2019-03-31T16:27:11.895Z,99.90
2019-03-31T16:29:42.333Z,99.90
2019-03-31T16:32:12.691Z,99.70
2019-03-31T16:34:43.072Z,99.70
2019-03-31T16:37:13.393Z,99.80
2019-03-31T16:39:43.722Z,99.70
2019-03-31T16:42:14.018Z,99.90
2019-03-31T16:44:57.444Z,99.90
2019-03-31T16:47:16.246Z,99.90
2019-03-31T16:49:46.612Z,99.90
2019-03-31T16:52:16.845Z,99.90
2019-03-31T16:54:47.369Z,99.90
2019-03-31T16:57:17.679Z,99.90
2019-03-31T16:59:47.995Z,99.90
2019-03-31T17:02:18.288Z,99.90
2019-03-31T17:04:48.614Z,99.90
2019-03-31T17:07:18.915Z,99.90
2019-03-31T17:09:51.606Z,99.90
2019-03-31T17:12:21.142Z,99.90
2019-03-31T17:14:51.447Z,99.90
2019-03-31T17:17:21.774Z,99.90
2019-03-31T17:19:52.123Z,99.90
2019-03-31T17:22:22.446Z,99.90
2019-03-31T17:24:52.810Z,99.90
2019-03-31T17:27:23.081Z,99.90
2019-03-31T17:29:53.397Z,99.90
2019-03-31T17:32:23.669Z,99.90
2019-03-31T17:34:53.959Z,99.90
2019-03-31T17:37:24.269Z,99.90
2019-03-31T17:40:05.359Z,99.90
2019-03-31T17:42:26.500Z,99.90
2019-03-31T17:44:57.561Z,99.90
2019-03-31T17:47:27.867Z,99.90
2019-03-31T17:49:58.678Z,99.90
2019-03-31T17:52:28.961Z,99.90
2019-03-31T17:54:59.289Z,99.90
2019-03-31T17:57:29.620Z,99.90
2019-03-31T18:00:01.295Z,99.90
2019-03-31T18:02:35.137Z,99.90
2019-03-31T18:05:06.970Z,99.90
2019-03-31T18:07:37.371Z,99.90
2019-03-31T18:10:20.962Z,99.90
2019-03-31T18:12:44.336Z,99.90
2019-03-31T18:15:15.367Z,99.90
2019-03-31T18:17:47.458Z,99.90
2019-03-31T18:20:19.921Z,99.90
2019-03-31T18:22:52.790Z,99.90
2019-03-31T18:25:24.257Z,99.90
2019-03-31T18:27:54.598Z,99.90
2019-03-31T18:30:27.124Z,99.90
2019-03-31T18:32:57.473Z,99.90
2019-03-31T18:35:28.049Z,99.90
2019-03-31T18:37:58.705Z,99.90
2019-03-31T18:40:35.321Z,99.90
2019-03-31T18:43:01.238Z,99.90
2019-03-31T18:45:31.866Z,99.90
2019-03-31T18:48:02.161Z,99.90
2019-03-31T18:50:33.830Z,99.90
2019-03-31T18:53:05.352Z,99.90
2019-03-31T18:55:44.486Z,99.90
2019-03-31T18:58:21.023Z,99.90
2019-03-31T19:00:57.829Z,99.90
2019-03-31T19:03:48.670Z,99.90
2019-03-31T19:06:36.652Z,99.90
2019-03-31T19:09:36.809Z,99.90
2019-03-31T19:12:23.075Z,99.90
2019-03-31T19:15:18.496Z,99.90
2019-03-31T19:17:55.754Z,99.90
2019-03-31T19:20:44.944Z,99.90
2019-03-31T19:23:45.800Z,99.90
2019-03-31T19:26:31.610Z,99.90
2019-03-31T19:29:23.716Z,99.90
2019-03-31T19:32:13.936Z,99.90
2019-03-31T19:35:03.322Z,99.90
2019-03-31T19:37:52.840Z,99.90
2019-03-31T19:40:44.986Z,99.90
2019-03-31T19:43:36.996Z,99.90
2019-03-31T19:46:32.531Z,99.90
2019-03-31T19:49:14.575Z,99.90
2019-03-31T19:51:52.124Z,99.90
2019-03-31T19:54:41.520Z,99.90
2019-03-31T19:57:34.802Z,99.90
2019-03-31T20:00:24.837Z,99.90
2019-03-31T20:03:14.404Z,99.90
2019-03-31T20:06:09.891Z,99.90
2019-03-31T20:08:49.443Z,99.90
2019-03-31T20:11:31.601Z,99.90
2019-03-31T20:14:23.906Z,99.90
2019-03-31T20:17:16.302Z,99.90
2019-03-31T20:20:05.557Z,99.90
2019-03-31T20:22:43.158Z,99.90
2019-03-31T20:25:35.618Z,99.90
2019-03-31T20:28:21.813Z,99.90
2019-03-31T20:30:59.154Z,99.90
2019-03-31T20:33:57.483Z,99.90
2019-03-31T20:36:45.399Z,99.90
2019-03-31T20:39:40.733Z,99.90
2019-03-31T20:42:20.925Z,99.90
2019-03-31T20:44:51.682Z,99.90
2019-03-31T20:47:22.325Z,99.90
2019-03-31T20:49:53.798Z,99.90
2019-03-31T20:52:24.222Z,99.90
2019-03-31T20:54:55.073Z,99.90
2019-03-31T20:57:25.351Z,99.90
2019-03-31T20:59:55.688Z,99.90
2019-03-31T21:02:25.972Z,99.90
2019-03-31T21:04:56.416Z,99.90
2019-03-31T21:07:26.789Z,99.90
2019-03-31T21:09:58.294Z,99.90
2019-03-31T21:12:28.756Z,99.90
2019-03-31T21:15:00.025Z,99.90
2019-03-31T21:17:30.870Z,99.90
2019-03-31T21:20:01.168Z,99.90
2019-03-31T21:22:31.700Z,99.90
2019-03-31T21:25:02.266Z,99.90
2019-03-31T21:27:33.454Z,99.90
2019-03-31T21:30:03.769Z,99.90
2019-03-31T21:32:34.121Z,99.90
2019-03-31T21:35:04.627Z,99.90
2019-03-31T21:37:34.905Z,99.90
2019-03-31T21:40:05.593Z,99.90
2019-03-31T21:42:35.893Z,99.90
2019-03-31T21:45:06.244Z,99.90
2019-03-31T21:47:36.539Z,99.90
2019-03-31T21:50:07.223Z,99.90
2019-03-31T21:52:37.517Z,99.90
